sensor_id;sensor_type;location;lat;lon;timestamp;temperature;humidity
21487;DHT22;10905;50.822;4.336;2023-08-20T00:00:22;21.40;99.90
21487;DHT22;10905;50.822;4.336;2023-08-20T00:02:53;21.40;99.90
21487;DHT22;10905;50.822;4.336;2023-08-20T00:05:23;21.50;99.90
21487;DHT22;10905;50.822;4.336;2023-08-20T00:07:49;21.50;99.90
21487;DHT22;10905;50.822;4.336;2023-08-20T00:10:15;21.40;99.90
21487;DHT22;10905;50.822;4.336;2023-08-20T00:12:40;21.30;99.90
21487;DHT22;10905;50.822;4.336;2023-08-20T00:15:06;21.30;99.90
21487;DHT22;10905;50.822;4.336;2023-08-20T00:17:34;21.30;99.90
21487;DHT22;10905;50.822;4.336;2023-08-20T00:20:00;21.30;99.90
21487;DHT22;10905;50.822;4.336;2023-08-20T00:22:26;21.40;99.90
21487;DHT22;10905;50.822;4.336;2023-08-20T00:24:53;21.40;99.90
21487;DHT22;10905;50.822;4.336;2023-08-20T00:27:19;21.40;99.90
21487;DHT22;10905;50.822;4.336;2023-08-20T00:29:45;21.40;99.90
21487;DHT22;10905;50.822;4.336;2023-08-20T00:32:11;21.40;99.90
21487;DHT22;10905;50.822;4.336;2023-08-20T00:34:36;21.40;99.90
21487;DHT22;10905;50.822;4.336;2023-08-20T00:37:02;21.50;99.90
21487;DHT22;10905;50.822;4.336;2023-08-20T00:39:29;21.40;99.90
21487;DHT22;10905;50.822;4.336;2023-08-20T00:41:55;21.50;99.90
21487;DHT22;10905;50.822;4.336;2023-08-20T00:44:20;21.50;99.90
21487;DHT22;10905;50.822;4.336;2023-08-20T00:46:46;21.50;99.90
21487;DHT22;10905;50.822;4.336;2023-08-20T00:49:12;21.40;99.90
21487;DHT22;10905;50.822;4.336;2023-08-20T00:51:38;21.50;99.90
21487;DHT22;10905;50.822;4.336;2023-08-20T00:54:05;21.50;99.90
21487;DHT22;10905;50.822;4.336;2023-08-20T00:56:30;21.50;99.90
21487;DHT22;10905;50.822;4.336;2023-08-20T00:58:56;21.60;99.90
21487;DHT22;10905;50.822;4.336;2023-08-20T01:01:23;21.50;99.90
21487;DHT22;10905;50.822;4.336;2023-08-20T01:03:48;21.50;99.90
21487;DHT22;10905;50.822;4.336;2023-08-20T01:08:49;21.60;99.90
21487;DHT22;10905;50.822;4.336;2023-08-20T01:11:24;21.70;99.90
21487;DHT22;10905;50.822;4.336;2023-08-20T01:13:50;21.60;99.90
21487;DHT22;10905;50.822;4.336;2023-08-20T01:16:19;21.60;99.90
21487;DHT22;10905;50.822;4.336;2023-08-20T01:18:45;21.60;99.90
21487;DHT22;10905;50.822;4.336;2023-08-20T01:21:39;21.70;99.90
21487;DHT22;10905;50.822;4.336;2023-08-20T01:29:58;21.60;99.90
21487;DHT22;10905;50.822;4.336;2023-08-20T01:32:25;21.60;99.90
21487;DHT22;10905;50.822;4.336;2023-08-20T01:34:52;21.40;99.90
21487;DHT22;10905;50.822;4.336;2023-08-20T01:37:19;21.30;99.90
21487;DHT22;10905;50.822;4.336;2023-08-20T01:39:45;21.20;99.90
21487;DHT22;10905;50.822;4.336;2023-08-20T01:42:10;21.10;99.90
21487;DHT22;10905;50.822;4.336;2023-08-20T01:44:36;21.10;99.90
21487;DHT22;10905;50.822;4.336;2023-08-20T01:47:02;21.10;99.90
21487;DHT22;10905;50.822;4.336;2023-08-20T01:49:28;21.00;99.90
21487;DHT22;10905;50.822;4.336;2023-08-20T01:51:54;21.00;99.90
21487;DHT22;10905;50.822;4.336;2023-08-20T01:54:19;21.10;99.90
21487;DHT22;10905;50.822;4.336;2023-08-20T01:56:45;21.10;99.90
21487;DHT22;10905;50.822;4.336;2023-08-20T01:59:11;21.10;99.90
21487;DHT22;10905;50.822;4.336;2023-08-20T02:01:38;21.10;99.90
21487;DHT22;10905;50.822;4.336;2023-08-20T02:04:03;21.10;99.90
21487;DHT22;10905;50.822;4.336;2023-08-20T02:06:29;21.10;99.90
21487;DHT22;10905;50.822;4.336;2023-08-20T02:08:55;21.10;99.90
21487;DHT22;10905;50.822;4.336;2023-08-20T02:11:20;21.10;99.90
21487;DHT22;10905;50.822;4.336;2023-08-20T02:13:46;21.00;99.90
21487;DHT22;10905;50.822;4.336;2023-08-20T02:16:12;21.00;99.90
21487;DHT22;10905;50.822;4.336;2023-08-20T02:18:37;21.00;99.90
21487;DHT22;10905;50.822;4.336;2023-08-20T02:21:03;21.00;99.90
21487;DHT22;10905;50.822;4.336;2023-08-20T02:23:29;20.90;99.90
21487;DHT22;10905;50.822;4.336;2023-08-20T02:25:54;20.80;99.90
21487;DHT22;10905;50.822;4.336;2023-08-20T02:28:20;20.80;99.90
21487;DHT22;10905;50.822;4.336;2023-08-20T02:30:46;20.90;99.90
21487;DHT22;10905;50.822;4.336;2023-08-20T02:33:12;20.90;99.90
21487;DHT22;10905;50.822;4.336;2023-08-20T02:35:39;20.80;99.90
21487;DHT22;10905;50.822;4.336;2023-08-20T02:38:05;20.80;99.90
21487;DHT22;10905;50.822;4.336;2023-08-20T02:40:31;20.80;99.90
21487;DHT22;10905;50.822;4.336;2023-08-20T02:42:57;20.80;99.90
21487;DHT22;10905;50.822;4.336;2023-08-20T02:45:23;20.70;99.90
21487;DHT22;10905;50.822;4.336;2023-08-20T02:47:49;20.70;99.90
21487;DHT22;10905;50.822;4.336;2023-08-20T02:50:15;20.70;99.90
21487;DHT22;10905;50.822;4.336;2023-08-20T02:52:45;20.80;99.90
21487;DHT22;10905;50.822;4.336;2023-08-20T02:55:10;20.70;99.90
21487;DHT22;10905;50.822;4.336;2023-08-20T02:57:36;20.70;99.90
21487;DHT22;10905;50.822;4.336;2023-08-20T03:00:02;20.60;99.90
21487;DHT22;10905;50.822;4.336;2023-08-20T03:02:28;20.70;99.90
21487;DHT22;10905;50.822;4.336;2023-08-20T03:04:53;20.70;99.90
21487;DHT22;10905;50.822;4.336;2023-08-20T03:07:21;20.60;99.90
21487;DHT22;10905;50.822;4.336;2023-08-20T03:09:48;20.60;99.90
21487;DHT22;10905;50.822;4.336;2023-08-20T03:12:13;20.50;99.90
21487;DHT22;10905;50.822;4.336;2023-08-20T03:14:39;20.50;99.90
21487;DHT22;10905;50.822;4.336;2023-08-20T03:17:05;20.50;99.90
21487;DHT22;10905;50.822;4.336;2023-08-20T03:19:33;20.50;99.90
21487;DHT22;10905;50.822;4.336;2023-08-20T03:22:00;20.40;99.90
21487;DHT22;10905;50.822;4.336;2023-08-20T03:24:26;20.40;99.90
21487;DHT22;10905;50.822;4.336;2023-08-20T03:26:52;20.40;99.90
21487;DHT22;10905;50.822;4.336;2023-08-20T03:29:17;20.30;99.90
21487;DHT22;10905;50.822;4.336;2023-08-20T03:31:43;20.40;99.90
21487;DHT22;10905;50.822;4.336;2023-08-20T03:34:09;20.40;99.90
21487;DHT22;10905;50.822;4.336;2023-08-20T03:36:35;20.40;99.90
21487;DHT22;10905;50.822;4.336;2023-08-20T03:39:00;20.40;99.90
21487;DHT22;10905;50.822;4.336;2023-08-20T03:41:26;20.30;99.90
21487;DHT22;10905;50.822;4.336;2023-08-20T03:43:52;20.30;99.90
21487;DHT22;10905;50.822;4.336;2023-08-20T03:46:17;20.30;99.90
21487;DHT22;10905;50.822;4.336;2023-08-20T03:48:43;20.30;99.90
21487;DHT22;10905;50.822;4.336;2023-08-20T03:51:09;20.20;99.90
21487;DHT22;10905;50.822;4.336;2023-08-20T03:53:34;20.20;99.90
21487;DHT22;10905;50.822;4.336;2023-08-20T03:56:00;20.20;99.90
21487;DHT22;10905;50.822;4.336;2023-08-20T03:58:26;20.10;99.90
21487;DHT22;10905;50.822;4.336;2023-08-20T04:00:51;20.10;99.90
21487;DHT22;10905;50.822;4.336;2023-08-20T04:03:17;20.00;99.90
21487;DHT22;10905;50.822;4.336;2023-08-20T04:05:44;19.90;99.90
21487;DHT22;10905;50.822;4.336;2023-08-20T04:08:10;19.90;99.90
21487;DHT22;10905;50.822;4.336;2023-08-20T04:10:42;20.00;99.90
21487;DHT22;10905;50.822;4.336;2023-08-20T04:13:08;20.10;99.90
21487;DHT22;10905;50.822;4.336;2023-08-20T04:15:33;20.10;99.90
21487;DHT22;10905;50.822;4.336;2023-08-20T04:17:59;20.10;99.90
21487;DHT22;10905;50.822;4.336;2023-08-20T04:20:25;20.10;99.90
21487;DHT22;10905;50.822;4.336;2023-08-20T04:22:50;20.10;99.90
21487;DHT22;10905;50.822;4.336;2023-08-20T04:25:16;20.00;99.90
21487;DHT22;10905;50.822;4.336;2023-08-20T04:27:42;19.90;99.90
21487;DHT22;10905;50.822;4.336;2023-08-20T04:30:08;19.90;99.90
21487;DHT22;10905;50.822;4.336;2023-08-20T04:32:34;20.00;99.90
21487;DHT22;10905;50.822;4.336;2023-08-20T04:34:59;20.10;99.90
21487;DHT22;10905;50.822;4.336;2023-08-20T04:37:25;20.00;99.90
21487;DHT22;10905;50.822;4.336;2023-08-20T04:39:51;20.00;99.90
21487;DHT22;10905;50.822;4.336;2023-08-20T04:42:16;20.00;99.90
21487;DHT22;10905;50.822;4.336;2023-08-20T04:44:42;20.00;99.90
21487;DHT22;10905;50.822;4.336;2023-08-20T04:47:11;20.00;99.90
21487;DHT22;10905;50.822;4.336;2023-08-20T04:49:38;20.00;99.90
21487;DHT22;10905;50.822;4.336;2023-08-20T04:52:04;19.90;99.90
21487;DHT22;10905;50.822;4.336;2023-08-20T04:54:29;20.00;99.90
21487;DHT22;10905;50.822;4.336;2023-08-20T04:56:55;19.90;99.90
21487;DHT22;10905;50.822;4.336;2023-08-20T04:59:21;19.70;99.90
21487;DHT22;10905;50.822;4.336;2023-08-20T05:01:46;19.70;99.90
21487;DHT22;10905;50.822;4.336;2023-08-20T05:04:12;19.60;99.90
21487;DHT22;10905;50.822;4.336;2023-08-20T05:06:37;19.60;99.90
21487;DHT22;10905;50.822;4.336;2023-08-20T05:09:03;19.70;99.90
21487;DHT22;10905;50.822;4.336;2023-08-20T05:11:29;19.70;99.90
21487;DHT22;10905;50.822;4.336;2023-08-20T05:13:57;19.70;99.90
21487;DHT22;10905;50.822;4.336;2023-08-20T05:16:22;19.70;99.90
21487;DHT22;10905;50.822;4.336;2023-08-20T05:18:48;19.70;99.90
21487;DHT22;10905;50.822;4.336;2023-08-20T05:21:14;19.80;99.90
21487;DHT22;10905;50.822;4.336;2023-08-20T05:23:42;19.80;99.90
21487;DHT22;10905;50.822;4.336;2023-08-20T05:26:08;19.70;99.90
21487;DHT22;10905;50.822;4.336;2023-08-20T05:28:34;19.60;99.90
21487;DHT22;10905;50.822;4.336;2023-08-20T05:31:00;19.60;99.90
21487;DHT22;10905;50.822;4.336;2023-08-20T05:33:25;19.70;99.90
21487;DHT22;10905;50.822;4.336;2023-08-20T05:35:52;19.80;99.90
21487;DHT22;10905;50.822;4.336;2023-08-20T05:38:17;19.90;99.90
21487;DHT22;10905;50.822;4.336;2023-08-20T05:40:43;20.00;99.90
21487;DHT22;10905;50.822;4.336;2023-08-20T05:43:09;20.10;99.90
21487;DHT22;10905;50.822;4.336;2023-08-20T05:45:35;19.90;99.90
21487;DHT22;10905;50.822;4.336;2023-08-20T05:48:01;19.80;99.90
21487;DHT22;10905;50.822;4.336;2023-08-20T05:50:27;19.90;99.90
21487;DHT22;10905;50.822;4.336;2023-08-20T05:52:52;19.80;99.90
21487;DHT22;10905;50.822;4.336;2023-08-20T05:55:18;19.70;99.90
21487;DHT22;10905;50.822;4.336;2023-08-20T05:57:44;19.80;99.90
21487;DHT22;10905;50.822;4.336;2023-08-20T06:00:11;19.90;99.90
21487;DHT22;10905;50.822;4.336;2023-08-20T06:02:37;19.90;99.90
21487;DHT22;10905;50.822;4.336;2023-08-20T06:05:04;20.00;99.90
21487;DHT22;10905;50.822;4.336;2023-08-20T06:07:33;20.10;99.90
21487;DHT22;10905;50.822;4.336;2023-08-20T06:09:59;20.10;99.90
21487;DHT22;10905;50.822;4.336;2023-08-20T06:12:24;20.10;99.90
21487;DHT22;10905;50.822;4.336;2023-08-20T06:14:50;20.10;99.90
21487;DHT22;10905;50.822;4.336;2023-08-20T06:17:16;20.20;99.90
21487;DHT22;10905;50.822;4.336;2023-08-20T06:19:42;20.30;99.90
21487;DHT22;10905;50.822;4.336;2023-08-20T06:22:08;20.40;99.90
21487;DHT22;10905;50.822;4.336;2023-08-20T06:24:33;20.50;99.90
21487;DHT22;10905;50.822;4.336;2023-08-20T06:26:59;20.70;99.90
21487;DHT22;10905;50.822;4.336;2023-08-20T06:29:25;20.70;99.90
21487;DHT22;10905;50.822;4.336;2023-08-20T06:31:50;20.80;99.90
21487;DHT22;10905;50.822;4.336;2023-08-20T06:34:16;20.70;99.90
21487;DHT22;10905;50.822;4.336;2023-08-20T06:36:42;20.80;99.90
21487;DHT22;10905;50.822;4.336;2023-08-20T06:39:08;20.80;99.90
21487;DHT22;10905;50.822;4.336;2023-08-20T06:41:34;20.80;99.90
21487;DHT22;10905;50.822;4.336;2023-08-20T06:44:01;20.90;99.90
21487;DHT22;10905;50.822;4.336;2023-08-20T06:46:27;21.00;99.90
21487;DHT22;10905;50.822;4.336;2023-08-20T06:48:52;21.10;99.90
21487;DHT22;10905;50.822;4.336;2023-08-20T06:51:21;21.30;99.90
21487;DHT22;10905;50.822;4.336;2023-08-20T06:53:48;21.30;99.90
21487;DHT22;10905;50.822;4.336;2023-08-20T06:56:14;21.30;99.90
21487;DHT22;10905;50.822;4.336;2023-08-20T06:58:42;21.30;99.90
21487;DHT22;10905;50.822;4.336;2023-08-20T07:01:08;21.30;99.90
21487;DHT22;10905;50.822;4.336;2023-08-20T07:03:44;21.40;99.90
21487;DHT22;10905;50.822;4.336;2023-08-20T07:06:10;21.50;99.90
21487;DHT22;10905;50.822;4.336;2023-08-20T07:08:37;21.60;99.90
21487;DHT22;10905;50.822;4.336;2023-08-20T07:11:05;21.70;99.90
21487;DHT22;10905;50.822;4.336;2023-08-20T07:13:30;21.70;99.90
21487;DHT22;10905;50.822;4.336;2023-08-20T07:15:56;21.80;99.90
21487;DHT22;10905;50.822;4.336;2023-08-20T07:18:22;21.70;99.90
21487;DHT22;10905;50.822;4.336;2023-08-20T07:20:49;21.80;99.90
21487;DHT22;10905;50.822;4.336;2023-08-20T07:23:14;21.90;99.90
21487;DHT22;10905;50.822;4.336;2023-08-20T07:25:41;21.90;99.90
21487;DHT22;10905;50.822;4.336;2023-08-20T07:28:08;22.00;99.90
21487;DHT22;10905;50.822;4.336;2023-08-20T07:30:34;22.10;99.90
21487;DHT22;10905;50.822;4.336;2023-08-20T07:33:01;22.20;99.90
21487;DHT22;10905;50.822;4.336;2023-08-20T07:35:27;22.30;99.90
21487;DHT22;10905;50.822;4.336;2023-08-20T07:37:52;22.30;99.90
21487;DHT22;10905;50.822;4.336;2023-08-20T07:40:18;22.30;99.90
21487;DHT22;10905;50.822;4.336;2023-08-20T07:42:44;22.30;99.90
21487;DHT22;10905;50.822;4.336;2023-08-20T07:45:10;22.50;99.90
21487;DHT22;10905;50.822;4.336;2023-08-20T07:47:37;22.50;99.90
21487;DHT22;10905;50.822;4.336;2023-08-20T07:50:03;22.50;99.90
21487;DHT22;10905;50.822;4.336;2023-08-20T07:52:30;22.50;99.90
21487;DHT22;10905;50.822;4.336;2023-08-20T07:54:56;22.50;99.90
21487;DHT22;10905;50.822;4.336;2023-08-20T07:57:21;22.70;99.90
21487;DHT22;10905;50.822;4.336;2023-08-20T07:59:49;22.70;99.90
21487;DHT22;10905;50.822;4.336;2023-08-20T08:02:15;22.80;99.90
21487;DHT22;10905;50.822;4.336;2023-08-20T08:04:42;22.90;99.90
21487;DHT22;10905;50.822;4.336;2023-08-20T08:07:09;22.90;99.90
21487;DHT22;10905;50.822;4.336;2023-08-20T08:09:35;22.90;99.90
21487;DHT22;10905;50.822;4.336;2023-08-20T08:12:00;23.00;99.90
21487;DHT22;10905;50.822;4.336;2023-08-20T08:14:26;23.20;99.90
21487;DHT22;10905;50.822;4.336;2023-08-20T08:16:52;23.20;99.90
21487;DHT22;10905;50.822;4.336;2023-08-20T08:19:18;23.10;99.90
21487;DHT22;10905;50.822;4.336;2023-08-20T08:21:46;23.20;99.90
21487;DHT22;10905;50.822;4.336;2023-08-20T08:24:12;23.20;99.90
21487;DHT22;10905;50.822;4.336;2023-08-20T08:26:39;23.30;99.90
21487;DHT22;10905;50.822;4.336;2023-08-20T08:29:05;23.40;99.90
21487;DHT22;10905;50.822;4.336;2023-08-20T08:31:31;23.50;99.90
21487;DHT22;10905;50.822;4.336;2023-08-20T08:33:57;23.50;99.90
21487;DHT22;10905;50.822;4.336;2023-08-20T08:36:23;23.60;99.90
21487;DHT22;10905;50.822;4.336;2023-08-20T08:38:53;23.70;99.90
21487;DHT22;10905;50.822;4.336;2023-08-20T08:41:35;23.80;99.90
21487;DHT22;10905;50.822;4.336;2023-08-20T08:44:05;23.80;99.90
21487;DHT22;10905;50.822;4.336;2023-08-20T08:46:32;23.70;99.90
21487;DHT22;10905;50.822;4.336;2023-08-20T08:48:59;23.80;99.90
21487;DHT22;10905;50.822;4.336;2023-08-20T08:51:25;23.90;99.90
21487;DHT22;10905;50.822;4.336;2023-08-20T08:53:52;24.10;99.90
21487;DHT22;10905;50.822;4.336;2023-08-20T08:56:18;24.10;99.90
21487;DHT22;10905;50.822;4.336;2023-08-20T08:58:44;24.20;99.90
21487;DHT22;10905;50.822;4.336;2023-08-20T09:01:09;24.30;99.90
21487;DHT22;10905;50.822;4.336;2023-08-20T09:03:35;24.30;99.90
21487;DHT22;10905;50.822;4.336;2023-08-20T09:06:02;24.30;99.90
21487;DHT22;10905;50.822;4.336;2023-08-20T09:08:33;24.30;99.90
21487;DHT22;10905;50.822;4.336;2023-08-20T09:11:00;24.40;99.90
21487;DHT22;10905;50.822;4.336;2023-08-20T09:13:37;24.60;99.90
21487;DHT22;10905;50.822;4.336;2023-08-20T09:16:08;24.60;99.90
21487;DHT22;10905;50.822;4.336;2023-08-20T09:18:41;24.40;99.90
21487;DHT22;10905;50.822;4.336;2023-08-20T09:21:10;24.70;99.90
21487;DHT22;10905;50.822;4.336;2023-08-20T09:23:37;24.70;99.90
21487;DHT22;10905;50.822;4.336;2023-08-20T09:26:05;24.80;99.90
21487;DHT22;10905;50.822;4.336;2023-08-20T09:28:45;24.90;99.90
21487;DHT22;10905;50.822;4.336;2023-08-20T09:31:11;25.00;99.90
21487;DHT22;10905;50.822;4.336;2023-08-20T09:33:51;25.00;99.90
21487;DHT22;10905;50.822;4.336;2023-08-20T09:36:18;25.00;99.90
21487;DHT22;10905;50.822;4.336;2023-08-20T09:38:44;25.20;99.90
21487;DHT22;10905;50.822;4.336;2023-08-20T09:41:12;25.30;99.90
21487;DHT22;10905;50.822;4.336;2023-08-20T09:43:38;25.30;99.90
21487;DHT22;10905;50.822;4.336;2023-08-20T09:46:05;25.30;99.90
21487;DHT22;10905;50.822;4.336;2023-08-20T09:48:35;25.30;99.90
21487;DHT22;10905;50.822;4.336;2023-08-20T09:51:04;25.20;99.90
21487;DHT22;10905;50.822;4.336;2023-08-20T09:53:42;25.30;99.90
21487;DHT22;10905;50.822;4.336;2023-08-20T09:56:22;25.50;99.90
21487;DHT22;10905;50.822;4.336;2023-08-20T09:58:50;25.60;99.90
21487;DHT22;10905;50.822;4.336;2023-08-20T10:01:16;25.60;99.90
21487;DHT22;10905;50.822;4.336;2023-08-20T10:03:43;25.70;99.90
21487;DHT22;10905;50.822;4.336;2023-08-20T10:06:09;25.80;99.90
21487;DHT22;10905;50.822;4.336;2023-08-20T10:08:36;25.80;99.90
21487;DHT22;10905;50.822;4.336;2023-08-20T10:11:03;25.80;99.90
21487;DHT22;10905;50.822;4.336;2023-08-20T10:13:29;25.80;99.90
21487;DHT22;10905;50.822;4.336;2023-08-20T10:15:55;25.80;99.90
21487;DHT22;10905;50.822;4.336;2023-08-20T10:18:21;25.90;99.90
21487;DHT22;10905;50.822;4.336;2023-08-20T10:20:50;25.90;99.90
21487;DHT22;10905;50.822;4.336;2023-08-20T10:23:20;25.90;99.90
21487;DHT22;10905;50.822;4.336;2023-08-20T10:25:48;26.00;99.90
21487;DHT22;10905;50.822;4.336;2023-08-20T10:28:22;26.00;99.90
21487;DHT22;10905;50.822;4.336;2023-08-20T10:33:49;26.10;99.90
21487;DHT22;10905;50.822;4.336;2023-08-20T10:36:19;26.10;99.90
21487;DHT22;10905;50.822;4.336;2023-08-20T10:38:50;26.30;99.90
21487;DHT22;10905;50.822;4.336;2023-08-20T10:41:16;26.20;99.90
21487;DHT22;10905;50.822;4.336;2023-08-20T10:43:49;26.30;99.90
21487;DHT22;10905;50.822;4.336;2023-08-20T10:46:18;26.30;99.90
21487;DHT22;10905;50.822;4.336;2023-08-20T10:48:52;26.30;99.90
21487;DHT22;10905;50.822;4.336;2023-08-20T10:51:19;26.10;99.90
21487;DHT22;10905;50.822;4.336;2023-08-20T10:56:47;26.30;99.90
21487;DHT22;10905;50.822;4.336;2023-08-20T10:59:14;26.40;99.90
21487;DHT22;10905;50.822;4.336;2023-08-20T11:01:46;26.30;99.90
21487;DHT22;10905;50.822;4.336;2023-08-20T11:04:14;26.30;99.90
21487;DHT22;10905;50.822;4.336;2023-08-20T11:06:41;26.60;99.90
21487;DHT22;10905;50.822;4.336;2023-08-20T11:09:06;26.70;99.90
21487;DHT22;10905;50.822;4.336;2023-08-20T11:11:32;26.80;99.90
21487;DHT22;10905;50.822;4.336;2023-08-20T11:14:05;26.80;99.90
21487;DHT22;10905;50.822;4.336;2023-08-20T11:16:33;26.90;99.90
21487;DHT22;10905;50.822;4.336;2023-08-20T11:18:59;26.90;99.90
21487;DHT22;10905;50.822;4.336;2023-08-20T11:21:25;27.00;99.90
21487;DHT22;10905;50.822;4.336;2023-08-20T11:23:51;27.10;99.90
21487;DHT22;10905;50.822;4.336;2023-08-20T11:26:17;27.10;99.90
21487;DHT22;10905;50.822;4.336;2023-08-20T11:28:46;27.30;99.90
21487;DHT22;10905;50.822;4.336;2023-08-20T11:31:13;27.30;99.90
21487;DHT22;10905;50.822;4.336;2023-08-20T11:33:38;27.40;99.90
21487;DHT22;10905;50.822;4.336;2023-08-20T11:36:07;27.30;99.90
21487;DHT22;10905;50.822;4.336;2023-08-20T11:38:33;27.60;99.90
21487;DHT22;10905;50.822;4.336;2023-08-20T11:40:58;27.70;99.90
21487;DHT22;10905;50.822;4.336;2023-08-20T11:43:28;27.70;99.90
21487;DHT22;10905;50.822;4.336;2023-08-20T11:45:54;27.70;99.90
21487;DHT22;10905;50.822;4.336;2023-08-20T11:48:23;27.70;99.90
21487;DHT22;10905;50.822;4.336;2023-08-20T11:50:52;27.70;99.90
21487;DHT22;10905;50.822;4.336;2023-08-20T11:53:22;27.80;99.90
21487;DHT22;10905;50.822;4.336;2023-08-20T11:55:50;27.80;99.90
21487;DHT22;10905;50.822;4.336;2023-08-20T11:58:18;27.90;99.90
21487;DHT22;10905;50.822;4.336;2023-08-20T12:00:49;28.10;99.90
21487;DHT22;10905;50.822;4.336;2023-08-20T12:03:18;28.10;99.90
21487;DHT22;10905;50.822;4.336;2023-08-20T12:05:44;28.10;99.90
21487;DHT22;10905;50.822;4.336;2023-08-20T12:08:15;27.90;99.90
21487;DHT22;10905;50.822;4.336;2023-08-20T12:10:43;28.10;99.90
21487;DHT22;10905;50.822;4.336;2023-08-20T12:13:09;28.30;99.90
21487;DHT22;10905;50.822;4.336;2023-08-20T12:15:35;28.40;99.90
21487;DHT22;10905;50.822;4.336;2023-08-20T12:18:05;28.50;99.90
21487;DHT22;10905;50.822;4.336;2023-08-20T12:20:32;28.70;99.90
21487;DHT22;10905;50.822;4.336;2023-08-20T12:23:03;28.80;99.90
21487;DHT22;10905;50.822;4.336;2023-08-20T12:25:34;28.90;99.90
21487;DHT22;10905;50.822;4.336;2023-08-20T12:28:04;29.00;99.90
21487;DHT22;10905;50.822;4.336;2023-08-20T12:30:31;29.10;99.90
21487;DHT22;10905;50.822;4.336;2023-08-20T12:32:57;29.00;99.90
21487;DHT22;10905;50.822;4.336;2023-08-20T12:35:23;29.00;99.90
21487;DHT22;10905;50.822;4.336;2023-08-20T12:37:49;29.10;99.90
21487;DHT22;10905;50.822;4.336;2023-08-20T12:40:14;29.00;99.90
21487;DHT22;10905;50.822;4.336;2023-08-20T12:42:41;28.80;99.90
21487;DHT22;10905;50.822;4.336;2023-08-20T12:45:07;28.80;99.90
21487;DHT22;10905;50.822;4.336;2023-08-20T12:47:34;28.60;99.90
21487;DHT22;10905;50.822;4.336;2023-08-20T12:50:00;28.50;99.90
21487;DHT22;10905;50.822;4.336;2023-08-20T12:52:26;28.40;99.90
21487;DHT22;10905;50.822;4.336;2023-08-20T12:54:51;28.50;99.90
21487;DHT22;10905;50.822;4.336;2023-08-20T12:57:17;28.70;99.90
21487;DHT22;10905;50.822;4.336;2023-08-20T12:59:43;29.10;99.90
21487;DHT22;10905;50.822;4.336;2023-08-20T13:02:10;29.40;99.90
21487;DHT22;10905;50.822;4.336;2023-08-20T13:04:36;29.70;99.90
21487;DHT22;10905;50.822;4.336;2023-08-20T13:07:03;30.00;99.90
21487;DHT22;10905;50.822;4.336;2023-08-20T13:09:29;29.80;99.90
21487;DHT22;10905;50.822;4.336;2023-08-20T13:11:56;29.80;99.90
21487;DHT22;10905;50.822;4.336;2023-08-20T13:14:23;30.00;99.90
21487;DHT22;10905;50.822;4.336;2023-08-20T13:16:49;30.30;99.90
21487;DHT22;10905;50.822;4.336;2023-08-20T13:19:15;30.40;99.90
21487;DHT22;10905;50.822;4.336;2023-08-20T13:21:40;30.20;99.90
21487;DHT22;10905;50.822;4.336;2023-08-20T13:24:06;30.10;99.90
21487;DHT22;10905;50.822;4.336;2023-08-20T13:26:32;29.80;99.90
21487;DHT22;10905;50.822;4.336;2023-08-20T13:28:58;29.70;99.90
21487;DHT22;10905;50.822;4.336;2023-08-20T13:31:23;29.60;99.90
21487;DHT22;10905;50.822;4.336;2023-08-20T13:33:49;29.60;99.90
21487;DHT22;10905;50.822;4.336;2023-08-20T13:36:15;29.60;99.90
21487;DHT22;10905;50.822;4.336;2023-08-20T13:38:41;29.50;99.90
21487;DHT22;10905;50.822;4.336;2023-08-20T13:41:07;29.60;99.90
21487;DHT22;10905;50.822;4.336;2023-08-20T13:43:33;29.90;99.90
21487;DHT22;10905;50.822;4.336;2023-08-20T13:45:59;30.00;99.90
21487;DHT22;10905;50.822;4.336;2023-08-20T13:48:24;30.10;99.90
21487;DHT22;10905;50.822;4.336;2023-08-20T13:50:50;30.00;99.90
21487;DHT22;10905;50.822;4.336;2023-08-20T13:53:17;29.90;99.90
21487;DHT22;10905;50.822;4.336;2023-08-20T13:55:44;30.00;99.90
21487;DHT22;10905;50.822;4.336;2023-08-20T13:58:10;30.10;99.90
21487;DHT22;10905;50.822;4.336;2023-08-20T14:00:35;30.20;99.90
21487;DHT22;10905;50.822;4.336;2023-08-20T14:03:01;30.20;99.90
21487;DHT22;10905;50.822;4.336;2023-08-20T14:05:26;30.20;99.90
21487;DHT22;10905;50.822;4.336;2023-08-20T14:07:54;30.10;99.90
21487;DHT22;10905;50.822;4.336;2023-08-20T14:10:20;30.10;99.90
21487;DHT22;10905;50.822;4.336;2023-08-20T14:12:45;30.10;99.90
21487;DHT22;10905;50.822;4.336;2023-08-20T14:15:11;30.40;99.90
21487;DHT22;10905;50.822;4.336;2023-08-20T14:17:37;30.70;99.90
21487;DHT22;10905;50.822;4.336;2023-08-20T14:20:02;31.00;99.90
21487;DHT22;10905;50.822;4.336;2023-08-20T14:22:29;31.10;99.90
21487;DHT22;10905;50.822;4.336;2023-08-20T14:24:54;31.10;99.90
21487;DHT22;10905;50.822;4.336;2023-08-20T14:27:20;30.70;99.90
21487;DHT22;10905;50.822;4.336;2023-08-20T14:29:47;30.60;99.90
21487;DHT22;10905;50.822;4.336;2023-08-20T14:32:13;30.80;99.90
21487;DHT22;10905;50.822;4.336;2023-08-20T14:34:40;30.80;99.90
21487;DHT22;10905;50.822;4.336;2023-08-20T14:37:06;30.60;99.90
21487;DHT22;10905;50.822;4.336;2023-08-20T14:39:32;30.50;99.90
21487;DHT22;10905;50.822;4.336;2023-08-20T14:41:58;30.30;99.90
21487;DHT22;10905;50.822;4.336;2023-08-20T14:44:24;30.60;99.90
21487;DHT22;10905;50.822;4.336;2023-08-20T14:46:49;30.90;99.90
21487;DHT22;10905;50.822;4.336;2023-08-20T14:49:16;31.20;99.90
21487;DHT22;10905;50.822;4.336;2023-08-20T14:51:45;31.30;99.90
21487;DHT22;10905;50.822;4.336;2023-08-20T14:54:10;31.40;99.90
21487;DHT22;10905;50.822;4.336;2023-08-20T14:56:37;31.20;99.90
21487;DHT22;10905;50.822;4.336;2023-08-20T14:59:02;31.30;99.90
21487;DHT22;10905;50.822;4.336;2023-08-20T15:01:29;31.50;99.90
21487;DHT22;10905;50.822;4.336;2023-08-20T15:03:55;31.50;99.90
21487;DHT22;10905;50.822;4.336;2023-08-20T15:06:21;31.40;99.90
21487;DHT22;10905;50.822;4.336;2023-08-20T15:08:49;31.10;99.90
21487;DHT22;10905;50.822;4.336;2023-08-20T15:11:15;31.00;99.90
21487;DHT22;10905;50.822;4.336;2023-08-20T15:13:40;31.20;99.90
21487;DHT22;10905;50.822;4.336;2023-08-20T15:16:06;30.90;99.90
21487;DHT22;10905;50.822;4.336;2023-08-20T15:18:31;30.60;99.90
21487;DHT22;10905;50.822;4.336;2023-08-20T15:20:58;30.40;99.90
21487;DHT22;10905;50.822;4.336;2023-08-20T15:23:25;30.10;99.90
21487;DHT22;10905;50.822;4.336;2023-08-20T15:25:52;29.90;99.90
21487;DHT22;10905;50.822;4.336;2023-08-20T15:28:22;29.60;99.90
21487;DHT22;10905;50.822;4.336;2023-08-20T15:30:55;29.60;99.90
21487;DHT22;10905;50.822;4.336;2023-08-20T15:33:22;29.50;99.90
21487;DHT22;10905;50.822;4.336;2023-08-20T15:35:48;29.40;99.90
21487;DHT22;10905;50.822;4.336;2023-08-20T15:38:13;29.60;99.90
21487;DHT22;10905;50.822;4.336;2023-08-20T15:40:39;29.50;99.90